Time,TemperatureF,DewpointF,PressureIn,WindDirection,WindDirectionDegrees,WindSpeedMPH,WindSpeedGustMPH,Humidity,HourlyPrecipIn,Conditions,Clouds,dailyrainin,SoftwareType,DateUTC
2013-01-25 00:00:00,21.4,5.2,30.50,NW,325,1.0,1.0,49,0.00,,---,0.00,VWS V14.01,2013-01-25 05:00:00,
2013-01-25 00:01:00,21.5,5.3,30.50,WNW,294,0.0,1.0,49,0.00,,---,0.00,VWS V14.01,2013-01-25 05:01:00,
2013-01-25 00:03:00,21.5,5.3,30.50,WNW,296,0.0,1.0,49,0.00,,---,0.00,VWS V14.01,2013-01-25 05:03:00,
2013-01-25 00:08:00,21.5,6.2,30.50,WSW,240,0.0,1.0,51,0.00,,---,0.00,VWS V14.01,2013-01-25 05:08:00,
2013-01-25 00:13:00,21.4,5.2,30.50,East,81,1.0,1.0,49,0.00,,---,0.00,VWS V14.01,2013-01-25 05:13:00,
2013-01-25 00:18:00,21.4,5.7,30.49,East,81,0.0,1.0,50,0.00,,---,0.00,VWS V14.01,2013-01-25 05:18:00,
2013-01-25 00:23:00,21.3,5.1,30.49,ESE,119,0.0,1.0,49,0.00,,---,0.00,VWS V14.01,2013-01-25 05:23:00,
2013-01-25 00:28:00,21.1,5.8,30.49,SSE,148,0.0,1.0,51,0.00,,---,0.00,VWS V14.01,2013-01-25 05:28:00,
2013-01-25 00:30:00,21.2,5.5,30.49,ESE,118,0.0,1.0,50,0.00,,---,0.00,VWS V14.01,2013-01-25 05:30:00,
2013-01-25 00:33:00,21.1,5.8,30.49,East,86,1.0,1.0,51,0.00,,---,0.00,VWS V14.01,2013-01-25 05:33:00,
2013-01-25 00:38:00,21.2,5.9,30.49,ESE,105,1.0,1.0,51,0.00,,---,0.00,VWS V14.01,2013-01-25 05:38:00,
2013-01-25 00:43:00,21.3,5.6,30.49,SE,137,0.0,1.0,50,0.00,,---,0.00,VWS V14.01,2013-01-25 05:43:00,
2013-01-25 00:48:00,21.4,6.5,30.49,SW,232,1.0,2.0,52,0.00,,---,0.00,VWS V14.01,2013-01-25 05:48:00,
2013-01-25 00:53:00,21.3,5.6,30.49,WSW,246,0.0,2.0,50,0.00,,---,0.00,VWS V14.01,2013-01-25 05:53:00,
2013-01-25 00:58:00,21.4,5.7,30.50,WSW,246,1.0,1.0,50,0.00,,---,0.00,VWS V14.01,2013-01-25 05:58:00,
2013-01-25 01:00:00,21.4,6.5,30.49,WSW,246,1.0,2.0,52,0.00,,---,0.00,VWS V14.01,2013-01-25 06:00:00,
2013-01-25 01:03:00,21.3,6.4,30.50,WSW,246,0.0,1.0,52,0.00,,---,0.00,VWS V14.01,2013-01-25 06:03:00,
2013-01-25 01:08:00,21.1,5.8,30.50,WSW,246,0.0,1.0,51,0.00,,---,0.00,VWS V14.01,2013-01-25 06:08:00,
2013-01-25 01:13:00,20.9,6.5,30.50,WSW,246,0.0,1.0,53,0.00,,---,0.00,VWS V14.01,2013-01-25 06:13:00,
2013-01-25 01:18:00,20.6,6.2,30.50,WSW,246,0.0,1.0,53,0.00,,---,0.00,VWS V14.01,2013-01-25 06:18:00,
2013-01-25 01:23:00,20.6,6.6,30.50,WSW,246,0.0,1.0,54,0.00,,---,0.00,VWS V14.01,2013-01-25 06:23:00,
2013-01-25 01:28:00,20.4,6.8,30.51,WSW,246,0.0,0.0,55,0.00,,---,0.00,VWS V14.01,2013-01-25 06:28:00,
2013-01-25 01:30:00,20.5,6.5,30.50,WSW,246,0.0,1.0,54,0.00,,---,0.00,VWS V14.01,2013-01-25 06:30:00,
2013-01-25 01:34:00,20.2,7.0,30.51,WSW,246,0.0,0.0,56,0.00,,---,0.00,VWS V14.01,2013-01-25 06:34:00,
2013-01-25 01:39:00,19.9,7.9,30.51,WSW,246,0.0,0.0,59,0.00,,---,0.00,VWS V14.01,2013-01-25 06:39:00,
2013-01-25 01:43:00,19.7,7.7,30.51,WSW,246,0.0,0.0,59,0.00,,---,0.00,VWS V14.01,2013-01-25 06:43:00,
2013-01-25 01:49:00,19.5,7.5,30.51,WSW,246,0.0,0.0,59,0.00,,---,0.00,VWS V14.01,2013-01-25 06:49:00,
2013-01-25 01:54:00,19.3,7.7,30.51,WSW,246,0.0,0.0,60,0.00,,---,0.00,VWS V14.01,2013-01-25 06:54:00,
2013-01-25 01:59:00,19.2,8.3,30.51,WSW,246,0.0,0.0,62,0.00,,---,0.00,VWS V14.01,2013-01-25 06:59:00,
2013-01-25 02:00:00,19.2,7.6,30.51,WSW,246,0.0,0.0,60,0.00,,---,0.00,VWS V14.01,2013-01-25 07:00:00,
2013-01-25 02:04:00,19.2,8.3,30.52,WSW,247,0.0,0.0,62,0.00,,---,0.00,VWS V14.01,2013-01-25 07:04:00,
2013-01-25 02:09:00,19.1,8.6,30.52,WSW,246,0.0,0.0,63,0.00,,---,0.00,VWS V14.01,2013-01-25 07:09:00,
2013-01-25 02:14:00,18.9,8.1,30.52,WSW,246,0.0,0.0,62,0.00,,---,0.00,VWS V14.01,2013-01-25 07:14:00,
2013-01-25 02:19:00,18.7,8.2,30.52,WSW,247,0.0,0.0,63,0.00,,---,0.00,VWS V14.01,2013-01-25 07:19:00,
2013-01-25 02:24:00,18.6,8.1,30.52,WSW,246,0.0,0.0,63,0.00,,---,0.00,VWS V14.01,2013-01-25 07:24:00,
2013-01-25 02:29:00,18.5,8.4,30.51,WSW,246,0.0,0.0,64,0.00,,---,0.00,VWS V14.01,2013-01-25 07:29:00,
2013-01-25 02:30:00,18.6,8.1,30.52,WSW,246,0.0,0.0,63,0.00,,---,0.00,VWS V14.01,2013-01-25 07:30:00,
2013-01-25 02:34:00,18.3,8.2,30.53,WSW,246,0.0,0.0,64,0.00,,---,0.00,VWS V14.01,2013-01-25 07:34:00,
2013-01-25 02:39:00,18.3,8.5,30.52,NNE,17,1.0,1.0,65,0.00,,---,0.00,VWS V14.01,2013-01-25 07:39:00,
2013-01-25 02:44:00,18.3,8.5,30.52,NNE,17,0.0,1.0,65,0.00,,---,0.00,VWS V14.01,2013-01-25 07:44:00,
2013-01-25 02:49:00,18.2,8.1,30.51,NNE,17,0.0,1.0,64,0.00,,---,0.00,VWS V14.01,2013-01-25 07:49:00,
2013-01-25 02:54:00,18.2,8.8,30.52,NNE,17,0.0,1.0,66,0.00,,---,0.00,VWS V14.01,2013-01-25 07:54:00,
2013-01-25 02:59:00,18.2,9.1,30.52,NNE,17,0.0,0.0,67,0.00,,---,0.00,VWS V14.01,2013-01-25 07:59:00,
2013-01-25 03:00:00,18.2,8.8,30.52,NNE,17,0.0,1.0,66,0.00,,---,0.00,VWS V14.01,2013-01-25 08:00:00,
2013-01-25 03:04:00,18.1,8.0,30.51,NNE,17,0.0,0.0,64,0.00,,---,0.00,VWS V14.01,2013-01-25 08:04:00,
2013-01-25 03:09:00,18.1,8.3,30.51,NNE,17,0.0,0.0,65,0.00,,---,0.00,VWS V14.01,2013-01-25 08:09:00,
2013-01-25 03:14:00,18.1,8.7,30.51,NNE,17,0.0,0.0,66,0.00,,---,0.00,VWS V14.01,2013-01-25 08:14:00,
2013-01-25 03:19:00,18.1,8.7,30.51,NNE,17,0.0,0.0,66,0.00,,---,0.00,VWS V14.01,2013-01-25 08:19:00,
2013-01-25 03:24:00,18.0,8.6,30.51,NNE,17,0.0,0.0,66,0.00,,---,0.00,VWS V14.01,2013-01-25 08:24:00,
2013-01-25 03:29:00,18.1,8.7,30.50,NNE,17,0.0,0.0,66,0.00,,---,0.00,VWS V14.01,2013-01-25 08:29:00,
2013-01-25 03:30:00,18.1,8.7,30.51,NNE,17,0.0,0.0,66,0.00,,---,0.00,VWS V14.01,2013-01-25 08:30:00,
2013-01-25 03:34:00,18.1,9.0,30.51,NNE,17,0.0,0.0,67,0.00,,---,0.00,VWS V14.01,2013-01-25 08:34:00,
2013-01-25 03:39:00,18.3,8.5,30.51,NNE,17,0.0,0.0,65,0.00,,---,0.00,VWS V14.01,2013-01-25 08:39:00,
2013-01-25 03:44:00,18.3,8.5,30.51,NNE,17,0.0,0.0,65,0.00,,---,0.00,VWS V14.01,2013-01-25 08:44:00,
2013-01-25 03:49:00,18.3,8.5,30.50,NNE,18,0.0,0.0,65,0.00,,---,0.00,VWS V14.01,2013-01-25 08:49:00,
2013-01-25 03:54:00,18.3,8.5,30.50,NNE,28,0.0,0.0,65,0.00,,---,0.00,VWS V14.01,2013-01-25 08:54:00,
2013-01-25 03:59:00,18.3,8.9,30.49,NNE,30,0.0,0.0,66,0.00,,---,0.00,VWS V14.01,2013-01-25 08:59:00,
2013-01-25 04:00:00,18.3,8.9,30.50,NNE,28,0.0,0.0,66,0.00,,---,0.00,VWS V14.01,2013-01-25 09:00:00,
2013-01-25 04:04:00,18.4,9.0,30.49,NNE,31,0.0,0.0,66,0.00,,---,0.00,VWS V14.01,2013-01-25 09:04:00,
2013-01-25 04:09:00,18.4,9.3,30.50,NNE,32,0.0,0.0,67,0.00,,---,0.00,VWS V14.01,2013-01-25 09:09:00,
2013-01-25 04:14:00,18.4,9.0,30.50,NNE,30,0.0,0.0,66,0.00,,---,0.00,VWS V14.01,2013-01-25 09:14:00,
2013-01-25 04:19:00,18.5,9.4,30.50,NNE,31,0.0,0.0,67,0.00,,---,0.00,VWS V14.01,2013-01-25 09:19:00,
2013-01-25 04:24:00,18.6,9.5,30.50,NNE,30,0.0,0.0,67,0.00,,---,0.00,VWS V14.01,2013-01-25 09:24:00,
2013-01-25 04:29:00,18.6,9.1,30.50,NE,38,0.0,0.0,66,0.00,,---,0.00,VWS V14.01,2013-01-25 09:29:00,
2013-01-25 04:30:00,18.6,9.5,30.50,NNE,30,0.0,0.0,67,0.00,,---,0.00,VWS V14.01,2013-01-25 09:30:00,
2013-01-25 04:34:00,18.7,9.6,30.50,ENE,58,0.0,0.0,67,0.00,,---,0.00,VWS V14.01,2013-01-25 09:34:00,
2013-01-25 04:39:00,18.8,9.7,30.49,ENE,58,0.0,0.0,67,0.00,,---,0.00,VWS V14.01,2013-01-25 09:39:00,
2013-01-25 04:44:00,18.8,9.7,30.50,ENE,58,0.0,0.0,67,0.00,,---,0.00,VWS V14.01,2013-01-25 09:44:00,
2013-01-25 04:49:00,18.9,10.1,30.49,NE,49,0.0,0.0,68,0.00,,---,0.00,VWS V14.01,2013-01-25 09:49:00,
2013-01-25 04:54:00,19.0,10.2,30.49,NE,51,0.0,0.0,68,0.00,,---,0.00,VWS V14.01,2013-01-25 09:54:00,
2013-01-25 04:59:00,19.0,9.9,30.49,NE,51,0.0,0.0,67,0.00,,---,0.00,VWS V14.01,2013-01-25 09:59:00,
2013-01-25 05:00:00,19.0,9.9,30.49,NE,51,0.0,0.0,67,0.00,,---,0.00,VWS V14.01,2013-01-25 10:00:00,
2013-01-25 05:05:00,19.1,10.3,30.49,NE,49,0.0,0.0,68,0.00,,---,0.00,VWS V14.01,2013-01-25 10:05:00,
2013-01-25 05:10:00,19.2,10.4,30.50,East,98,0.0,0.0,68,0.00,,---,0.00,VWS V14.01,2013-01-25 10:10:00,
2013-01-25 05:15:00,19.3,10.5,30.49,ENE,77,0.0,0.0,68,0.00,,---,0.00,VWS V14.01,2013-01-25 10:15:00,
2013-01-25 05:20:00,19.3,10.1,30.50,ENE,77,0.0,0.0,67,0.00,,---,0.00,VWS V14.01,2013-01-25 10:20:00,
2013-01-25 05:25:00,19.3,10.1,30.50,ENE,77,0.0,0.0,67,0.00,,---,0.00,VWS V14.01,2013-01-25 10:25:00,
2013-01-25 05:30:00,19.4,10.6,30.50,ENE,63,0.0,0.0,68,0.00,,---,0.00,VWS V14.01,2013-01-25 10:30:00,
2013-01-25 05:35:00,19.5,10.3,30.50,ENE,65,0.0,0.0,67,0.00,,---,0.00,VWS V14.01,2013-01-25 10:35:00,
2013-01-25 05:40:00,19.6,10.4,30.49,ENE,71,0.0,0.0,67,0.00,,---,0.00,VWS V14.01,2013-01-25 10:40:00,
2013-01-25 05:45:00,19.7,10.9,30.50,NNE,27,0.0,0.0,68,0.00,,---,0.00,VWS V14.01,2013-01-25 10:45:00,
2013-01-25 05:50:00,19.8,11.0,30.50,NNE,31,0.0,0.0,68,0.00,,---,0.00,VWS V14.01,2013-01-25 10:50:00,
2013-01-25 05:55:00,19.8,11.0,30.49,NNE,32,0.0,0.0,68,0.00,,---,0.00,VWS V14.01,2013-01-25 10:55:00,
2013-01-25 06:00:00,20.0,11.1,30.49,NNE,32,0.0,0.0,68,0.00,,---,0.00,VWS V14.01,2013-01-25 11:00:00,
2013-01-25 06:05:00,20.0,11.1,30.49,NE,34,0.0,0.0,68,0.00,,---,0.00,VWS V14.01,2013-01-25 11:05:00,
2013-01-25 06:10:00,20.1,11.2,30.50,NNE,32,0.0,0.0,68,0.00,,---,0.00,VWS V14.01,2013-01-25 11:10:00,
2013-01-25 06:15:00,20.2,11.7,30.49,NNE,32,0.0,0.0,69,0.00,,---,0.00,VWS V14.01,2013-01-25 11:15:00,
2013-01-25 06:20:00,20.3,11.8,30.49,NE,34,0.0,0.0,69,0.00,,---,0.00,VWS V14.01,2013-01-25 11:20:00,
2013-01-25 06:25:00,20.4,11.5,30.49,NE,50,0.0,0.0,68,0.00,,---,0.00,VWS V14.01,2013-01-25 11:25:00,
2013-01-25 06:30:00,20.4,11.5,30.49,NE,51,0.0,0.0,68,0.00,,---,0.00,VWS V14.01,2013-01-25 11:30:00,
2013-01-25 06:35:00,20.4,11.5,30.48,NE,53,0.0,0.0,68,0.00,,---,0.00,VWS V14.01,2013-01-25 11:35:00,
2013-01-25 06:40:00,20.5,11.6,30.50,NE,53,0.0,0.0,68,0.00,,---,0.00,VWS V14.01,2013-01-25 11:40:00,
2013-01-25 06:45:00,20.5,12.0,30.49,NE,52,0.0,0.0,69,0.00,,---,0.00,VWS V14.01,2013-01-25 11:45:00,
2013-01-25 06:50:00,20.6,12.1,30.50,NE,53,0.0,0.0,69,0.00,,---,0.00,VWS V14.01,2013-01-25 11:50:00,
2013-01-25 06:55:00,20.7,12.1,30.49,NE,52,0.0,0.0,69,0.00,,---,0.00,VWS V14.01,2013-01-25 11:55:00,
2013-01-25 07:00:00,20.8,11.9,30.49,ENE,78,0.0,0.0,68,0.00,,---,0.00,VWS V14.01,2013-01-25 12:00:00,
2013-01-25 07:05:00,20.9,12.0,30.49,East,80,0.0,0.0,68,0.00,,---,0.00,VWS V14.01,2013-01-25 12:05:00,
2013-01-25 07:10:00,20.9,11.7,30.48,East,80,0.0,0.0,67,0.00,,---,0.00,VWS V14.01,2013-01-25 12:10:00,
2013-01-25 07:15:00,20.9,11.3,30.48,East,80,0.0,0.0,66,0.00,,---,0.00,VWS V14.01,2013-01-25 12:15:00,
2013-01-25 07:20:00,20.9,11.7,30.49,East,80,0.0,0.0,67,0.00,,---,0.00,VWS V14.01,2013-01-25 12:20:00,
2013-01-25 07:25:00,21.0,11.1,30.48,East,80,0.0,0.0,65,0.00,,---,0.00,VWS V14.01,2013-01-25 12:25:00,
2013-01-25 07:30:00,21.0,11.1,30.47,East,80,0.0,0.0,65,0.00,,---,0.00,VWS V14.01,2013-01-25 12:30:00,
2013-01-25 07:35:00,21.0,10.8,30.47,East,81,0.0,0.0,64,0.00,,---,0.00,VWS V14.01,2013-01-25 12:35:00,
2013-01-25 07:40:00,21.1,10.8,30.46,ESE,122,0.0,0.0,64,0.00,,---,0.00,VWS V14.01,2013-01-25 12:40:00,
2013-01-25 07:45:00,21.1,10.8,30.46,SE,142,0.0,0.0,64,0.00,,---,0.00,VWS V14.01,2013-01-25 12:45:00,
2013-01-25 07:50:00,21.2,10.9,30.46,SE,142,0.0,0.0,64,0.00,,---,0.00,VWS V14.01,2013-01-25 12:50:00,
2013-01-25 07:55:00,21.2,10.9,30.46,SE,143,0.0,0.0,64,0.00,,---,0.00,VWS V14.01,2013-01-25 12:55:00,
2013-01-25 08:00:00,21.4,11.1,30.45,SE,126,0.0,0.0,64,0.00,,---,0.00,VWS V14.01,2013-01-25 13:00:00,
2013-01-25 08:05:00,21.5,10.9,30.45,SE,127,0.0,0.0,63,0.00,,---,0.00,VWS V14.01,2013-01-25 13:05:00,
2013-01-25 08:10:00,21.7,10.3,30.45,SSE,159,0.0,0.0,61,0.00,,---,0.00,VWS V14.01,2013-01-25 13:10:00,
2013-01-25 08:15:00,21.8,10.1,30.45,SSE,151,0.0,2.0,60,0.00,,---,0.00,VWS V14.01,2013-01-25 13:15:00,
2013-01-25 08:20:00,22.0,9.9,30.44,South,176,1.0,2.0,59,0.00,,---,0.00,VWS V14.01,2013-01-25 13:20:00,
2013-01-25 08:25:00,22.1,9.6,30.43,ESE,114,1.0,1.0,58,0.00,,---,0.00,VWS V14.01,2013-01-25 13:25:00,
2013-01-25 08:30:00,22.3,9.8,30.44,NW,324,1.0,2.0,58,0.00,,---,0.00,VWS V14.01,2013-01-25 13:30:00,
2013-01-25 08:35:00,22.5,10.0,30.45,South,169,2.0,2.0,58,0.00,,---,0.00,VWS V14.01,2013-01-25 13:35:00,
2013-01-25 08:40:00,22.7,9.8,30.45,SSE,156,0.0,4.0,57,0.00,,---,0.00,VWS V14.01,2013-01-25 13:40:00,
2013-01-25 08:45:00,22.8,9.9,30.46,WSW,249,1.0,4.0,57,0.00,,---,0.00,VWS V14.01,2013-01-25 13:45:00,
2013-01-25 08:50:00,22.9,9.2,30.46,South,189,4.0,4.0,55,0.00,,---,0.00,VWS V14.01,2013-01-25 13:50:00,
2013-01-25 08:55:00,23.0,8.9,30.46,South,174,2.0,2.0,54,0.00,,---,0.00,VWS V14.01,2013-01-25 13:55:00,
2013-01-25 09:00:00,23.1,8.9,30.45,SSE,163,0.0,2.0,54,0.00,,---,0.00,VWS V14.01,2013-01-25 14:00:00,
2013-01-25 09:05:00,23.3,9.1,30.45,SSW,211,2.0,2.0,54,0.00,,---,0.00,VWS V14.01,2013-01-25 14:05:00,
2013-01-25 09:10:00,23.4,8.8,30.45,South,186,0.0,2.0,53,0.00,,---,0.00,VWS V14.01,2013-01-25 14:10:00,
2013-01-25 09:15:00,23.6,9.0,30.45,SSE,159,0.0,2.0,53,0.00,,---,0.00,VWS V14.01,2013-01-25 14:15:00,
2013-01-25 09:20:00,23.8,8.3,30.46,WSW,257,3.0,4.0,51,0.00,,---,0.00,VWS V14.01,2013-01-25 14:20:00,
2013-01-25 09:25:00,23.6,7.3,30.47,SW,222,0.0,2.0,49,0.00,,---,0.00,VWS V14.01,2013-01-25 14:25:00,
2013-01-25 09:30:00,23.7,7.8,30.47,SSE,165,2.0,2.0,50,0.00,,---,0.00,VWS V14.01,2013-01-25 14:30:00,
2013-01-25 09:36:00,23.8,7.4,30.47,SSE,164,1.0,2.0,49,0.00,,---,0.00,VWS V14.01,2013-01-25 14:36:00,
2013-01-25 09:41:00,23.8,7.4,30.47,SSW,210,2.0,2.0,49,0.00,,---,0.00,VWS V14.01,2013-01-25 14:41:00,
2013-01-25 09:46:00,23.9,7.5,30.46,SW,233,0.0,2.0,49,0.00,,---,0.00,VWS V14.01,2013-01-25 14:46:00,
2013-01-25 09:51:00,24.0,8.1,30.46,SW,214,0.0,2.0,50,0.00,,---,0.00,VWS V14.01,2013-01-25 14:51:00,
2013-01-25 09:56:00,24.2,7.8,30.45,SSE,157,2.0,2.0,49,0.00,,---,0.00,VWS V14.01,2013-01-25 14:56:00,
2013-01-25 10:00:00,24.2,7.8,30.45,SW,223,0.0,2.0,49,0.00,,---,0.00,VWS V14.01,2013-01-25 15:00:00,
2013-01-25 10:01:00,24.2,7.8,30.45,SSW,212,2.0,4.0,49,0.00,,---,0.00,VWS V14.01,2013-01-25 15:01:00,
2013-01-25 10:06:00,24.2,7.8,30.45,West,275,0.0,4.0,49,0.00,,---,0.00,VWS V14.01,2013-01-25 15:06:00,
2013-01-25 10:11:00,24.3,7.4,30.45,South,178,2.0,4.0,48,0.00,,---,0.00,VWS V14.01,2013-01-25 15:11:00,
2013-01-25 10:16:00,24.3,7.4,30.46,SE,145,1.0,4.0,48,0.00,,---,0.00,VWS V14.01,2013-01-25 15:16:00,
2013-01-25 10:21:00,24.4,8.0,30.43,South,171,4.0,4.0,49,0.00,,---,0.00,VWS V14.01,2013-01-25 15:21:00,
2013-01-25 10:26:00,24.3,7.9,30.43,SE,136,2.0,2.0,49,0.00,,---,0.00,VWS V14.01,2013-01-25 15:26:00,
2013-01-25 10:30:00,24.3,7.9,30.43,SSE,167,1.0,4.0,49,0.00,,---,0.00,VWS V14.01,2013-01-25 15:30:00,
2013-01-25 10:31:00,24.2,7.3,30.42,South,177,4.0,4.0,48,0.00,,---,0.00,VWS V14.01,2013-01-25 15:31:00,
2013-01-25 10:36:00,24.1,7.7,30.42,SSW,208,3.0,4.0,49,0.00,,---,0.00,VWS V14.01,2013-01-25 15:36:00,
2013-01-25 10:41:00,24.1,7.7,30.42,East,85,0.0,4.0,49,0.00,,---,0.00,VWS V14.01,2013-01-25 15:41:00,
2013-01-25 10:46:00,24.1,7.7,30.41,South,171,5.0,5.0,49,0.00,,---,0.00,VWS V14.01,2013-01-25 15:46:00,
2013-01-25 10:51:00,24.1,7.3,30.41,SSW,194,1.0,5.0,48,0.00,,---,0.00,VWS V14.01,2013-01-25 15:51:00,
2013-01-25 10:56:00,24.1,7.3,30.42,SW,221,1.0,2.0,48,0.00,,---,0.00,VWS V14.01,2013-01-25 15:56:00,
2013-01-25 11:00:00,24.1,7.7,30.42,SW,222,1.0,5.0,49,0.00,,---,0.00,VWS V14.01,2013-01-25 16:00:00,
2013-01-25 11:01:00,24.2,7.3,30.41,South,175,1.0,4.0,48,0.00,,---,0.00,VWS V14.01,2013-01-25 16:01:00,
2013-01-25 11:06:00,24.2,7.8,30.41,WSW,237,1.0,4.0,49,0.00,,---,0.00,VWS V14.01,2013-01-25 16:06:00,
2013-01-25 11:11:00,24.2,8.3,30.40,SSE,155,4.0,6.0,50,0.00,,---,0.00,VWS V14.01,2013-01-25 16:11:00,
2013-01-25 11:16:00,24.0,9.4,30.40,SW,218,5.0,6.0,53,0.00,,---,0.00,VWS V14.01,2013-01-25 16:16:00,
2013-01-25 11:21:00,23.7,10.3,30.41,SSE,150,5.0,6.0,56,0.00,,---,0.00,VWS V14.01,2013-01-25 16:21:00,
2013-01-25 11:26:00,23.5,10.9,30.40,SSW,209,5.0,6.0,58,0.00,,---,0.00,VWS V14.01,2013-01-25 16:26:00,
2013-01-25 11:30:00,23.6,11.0,30.40,WSW,242,6.0,6.0,58,0.00,,---,0.00,VWS V14.01,2013-01-25 16:30:00,
2013-01-25 11:31:00,23.4,11.2,30.40,SW,226,4.0,7.0,59,0.00,,---,0.00,VWS V14.01,2013-01-25 16:31:00,
2013-01-25 11:36:00,23.3,11.9,30.40,SE,140,1.0,7.0,61,0.00,,---,0.00,VWS V14.01,2013-01-25 16:36:00,
2013-01-25 11:41:00,23.3,11.9,30.39,SSE,154,2.0,7.0,61,0.00,,---,0.00,VWS V14.01,2013-01-25 16:41:00,
2013-01-25 11:46:00,23.2,11.8,30.38,SW,223,4.0,7.0,61,0.00,,---,0.00,VWS V14.01,2013-01-25 16:46:00,
2013-01-25 11:51:00,23.2,12.8,30.37,South,184,1.0,7.0,64,0.00,,---,0.00,VWS V14.01,2013-01-25 16:51:00,
2013-01-25 11:56:00,23.2,13.5,30.37,South,171,4.0,4.0,66,0.00,,---,0.00,VWS V14.01,2013-01-25 16:56:00,
2013-01-25 12:00:00,23.2,13.5,30.38,South,176,4.0,7.0,66,0.00,,---,0.00,VWS V14.01,2013-01-25 17:00:00,
2013-01-25 12:01:00,23.0,13.7,30.37,South,179,2.0,5.0,67,0.00,,---,0.00,VWS V14.01,2013-01-25 17:01:00,
2013-01-25 12:06:00,22.8,14.2,30.36,SSE,161,0.0,5.0,69,0.00,,---,0.00,VWS V14.01,2013-01-25 17:06:00,
2013-01-25 12:11:00,22.8,14.8,30.35,SE,144,2.0,5.0,71,0.00,,---,0.00,VWS V14.01,2013-01-25 17:11:00,
2013-01-25 12:16:00,22.8,15.1,30.34,SSW,203,2.0,5.0,72,0.00,,---,0.00,VWS V14.01,2013-01-25 17:16:00,
2013-01-25 12:21:00,22.7,14.7,30.33,South,176,1.0,5.0,71,0.00,,---,0.00,VWS V14.01,2013-01-25 17:21:00,
2013-01-25 12:26:00,22.7,15.4,30.34,WSW,241,3.0,3.0,73,0.00,,---,0.00,VWS V14.01,2013-01-25 17:26:00,
2013-01-25 12:30:00,22.7,15.4,30.34,SE,142,1.0,5.0,73,0.00,,---,0.00,VWS V14.01,2013-01-25 17:30:00,
2013-01-25 12:31:00,22.7,15.7,30.34,WSW,238,1.0,4.0,74,0.00,,---,0.00,VWS V14.01,2013-01-25 17:31:00,
2013-01-25 12:36:00,22.6,15.3,30.32,SSW,210,5.0,6.0,73,0.00,,---,0.00,VWS V14.01,2013-01-25 17:36:00,
2013-01-25 12:41:00,22.5,15.5,30.31,South,173,2.0,6.0,74,0.00,,---,0.00,VWS V14.01,2013-01-25 17:41:00,
2013-01-25 12:46:00,22.5,14.9,30.31,WSW,252,5.0,6.0,72,0.00,,---,0.00,VWS V14.01,2013-01-25 17:46:00,
2013-01-25 12:51:00,22.5,15.2,30.31,South,183,2.0,6.0,73,0.00,,---,0.00,VWS V14.01,2013-01-25 17:51:00,
2013-01-25 12:56:00,22.5,15.2,30.30,SSE,153,2.0,2.0,73,0.00,,---,0.00,VWS V14.01,2013-01-25 17:56:00,
2013-01-25 13:00:00,22.5,15.2,30.30,SSE,164,1.0,7.0,73,0.00,,---,0.00,VWS V14.01,2013-01-25 18:00:00,
2013-01-25 13:01:00,22.6,15.3,30.29,SSW,195,4.0,4.0,73,0.00,,---,0.00,VWS V14.01,2013-01-25 18:01:00,
2013-01-25 13:06:00,22.7,15.4,30.28,South,171,2.0,7.0,73,0.00,,---,0.00,VWS V14.01,2013-01-25 18:06:00,
2013-01-25 13:11:00,22.6,15.3,30.28,WSW,256,2.0,7.0,73,0.00,,---,0.00,VWS V14.01,2013-01-25 18:11:00,
2013-01-25 13:16:00,22.7,15.4,30.27,SSW,194,2.0,7.0,73,0.00,,---,0.00,VWS V14.01,2013-01-25 18:16:00,
2013-01-25 13:21:00,22.8,15.5,30.26,SE,125,1.0,7.0,73,0.00,,---,0.00,VWS V14.01,2013-01-25 18:21:00,
2013-01-25 13:26:00,22.9,15.6,30.26,South,188,2.0,4.0,73,0.00,,---,0.00,VWS V14.01,2013-01-25 18:26:00,
2013-01-25 13:30:00,22.9,15.6,30.26,South,169,2.0,7.0,73,0.00,,---,0.00,VWS V14.01,2013-01-25 18:30:00,
2013-01-25 13:31:00,23.0,15.3,30.26,SSE,152,1.0,4.0,72,0.00,,---,0.00,VWS V14.01,2013-01-25 18:31:00,
2013-01-25 13:36:00,23.1,15.8,30.27,SW,226,1.0,4.0,73,0.00,,---,0.00,VWS V14.01,2013-01-25 18:36:00,
2013-01-25 13:41:00,23.2,15.8,30.27,South,176,1.0,4.0,73,0.00,,---,0.00,VWS V14.01,2013-01-25 18:41:00,
2013-01-25 13:46:00,23.3,16.9,30.28,WSW,242,0.0,4.0,76,0.00,,---,0.00,VWS V14.01,2013-01-25 18:46:00,
2013-01-25 13:52:00,23.3,17.2,30.27,WNW,294,1.0,4.0,77,0.00,,---,0.00,VWS V14.01,2013-01-25 18:52:00,
2013-01-25 13:57:00,23.3,17.2,30.27,SSW,205,1.0,1.0,77,0.00,,---,0.00,VWS V14.01,2013-01-25 18:57:00,
2013-01-25 14:00:00,23.3,16.9,30.27,SSW,213,0.0,4.0,76,0.00,,---,0.00,VWS V14.01,2013-01-25 19:00:00,
2013-01-25 14:02:00,23.3,17.2,30.27,South,178,1.0,4.0,77,0.00,,---,0.00,VWS V14.01,2013-01-25 19:02:00,
2013-01-25 14:07:00,23.5,18.2,30.26,SW,226,0.0,4.0,80,0.00,,---,0.00,VWS V14.01,2013-01-25 19:07:00,
2013-01-25 14:12:00,23.5,18.0,30.25,SW,225,0.0,4.0,79,0.00,,---,0.00,VWS V14.01,2013-01-25 19:12:00,
2013-01-25 14:17:00,23.6,18.9,30.24,South,179,1.0,4.0,82,0.00,,---,0.00,VWS V14.01,2013-01-25 19:17:00,
2013-01-25 14:22:00,23.7,19.0,30.24,WSW,253,0.0,4.0,82,0.00,,---,0.00,VWS V14.01,2013-01-25 19:22:00,
2013-01-25 14:27:00,23.8,19.4,30.24,South,187,1.0,1.0,83,0.00,,---,0.00,VWS V14.01,2013-01-25 19:27:00,
2013-01-25 14:30:00,23.8,19.4,30.24,WSW,248,1.0,4.0,83,0.00,,---,0.00,VWS V14.01,2013-01-25 19:30:00,
2013-01-25 14:32:00,23.8,19.1,30.23,South,169,2.0,2.0,82,0.00,,---,0.00,VWS V14.01,2013-01-25 19:32:00,
2013-01-25 14:37:00,23.8,19.4,30.22,SSE,152,0.0,2.0,83,0.00,,---,0.00,VWS V14.01,2013-01-25 19:37:00,
2013-01-25 14:42:00,23.9,19.5,30.23,SSE,168,0.0,2.0,83,0.00,,---,0.00,VWS V14.01,2013-01-25 19:42:00,
2013-01-25 14:47:00,24.1,20.2,30.22,SW,234,4.0,4.0,85,0.00,,---,0.00,VWS V14.01,2013-01-25 19:47:00,
2013-01-25 14:52:00,24.0,19.9,30.21,SW,222,5.0,5.0,84,0.00,,---,0.00,VWS V14.01,2013-01-25 19:52:00,
2013-01-25 14:57:00,24.0,20.1,30.22,SE,134,1.0,2.0,85,0.00,,---,0.00,VWS V14.01,2013-01-25 19:57:00,
2013-01-25 15:00:00,24.0,19.9,30.21,NE,42,0.0,5.0,84,0.00,,---,0.00,VWS V14.01,2013-01-25 20:00:00,
2013-01-25 15:02:00,24.0,19.9,30.21,SSW,192,2.0,4.0,84,0.00,,---,0.00,VWS V14.01,2013-01-25 20:02:00,
2013-01-25 15:07:00,23.9,20.1,30.21,WSW,258,0.0,4.0,85,0.00,,---,0.00,VWS V14.01,2013-01-25 20:07:00,
2013-01-25 15:12:00,23.9,20.1,30.21,SW,222,0.0,4.0,85,0.00,,---,0.00,VWS V14.01,2013-01-25 20:12:00,
2013-01-25 15:17:00,24.1,20.8,30.19,SSE,167,0.0,4.0,87,0.00,,---,0.00,VWS V14.01,2013-01-25 20:17:00,
2013-01-25 15:22:00,24.2,20.9,30.19,South,191,1.0,4.0,87,0.00,,---,0.00,VWS V14.01,2013-01-25 20:22:00,
2013-01-25 15:27:00,24.2,20.9,30.19,South,175,1.0,1.0,87,0.00,,---,0.00,VWS V14.01,2013-01-25 20:27:00,
2013-01-25 15:30:00,24.2,20.9,30.19,SE,146,1.0,4.0,87,0.00,,---,0.00,VWS V14.01,2013-01-25 20:30:00,
2013-01-25 15:32:00,24.1,20.8,30.19,SW,234,2.0,2.0,87,0.00,,---,0.00,VWS V14.01,2013-01-25 20:32:00,
2013-01-25 15:37:00,23.9,20.6,30.19,SW,229,5.0,5.0,87,0.00,,---,0.00,VWS V14.01,2013-01-25 20:37:00,
2013-01-25 15:42:00,23.9,20.9,30.18,SSE,161,1.0,5.0,88,0.00,,---,0.00,VWS V14.01,2013-01-25 20:42:00,
2013-01-25 15:47:00,24.0,21.2,30.19,South,177,0.0,5.0,89,0.00,,---,0.00,VWS V14.01,2013-01-25 20:47:00,
2013-01-25 15:52:00,24.1,21.3,30.18,SSE,158,0.0,5.0,89,0.00,,---,0.00,VWS V14.01,2013-01-25 20:52:00,
2013-01-25 15:57:00,24.1,21.3,30.20,SSE,159,0.0,0.0,89,0.00,,---,0.00,VWS V14.01,2013-01-25 20:57:00,
2013-01-25 16:00:00,24.1,21.3,30.19,SSE,158,0.0,5.0,89,0.00,,---,0.00,VWS V14.01,2013-01-25 21:00:00,
2013-01-25 16:02:00,24.1,21.3,30.19,SW,215,1.0,1.0,89,0.00,,---,0.00,VWS V14.01,2013-01-25 21:02:00,
2013-01-25 16:07:00,24.1,21.3,30.18,SSE,156,1.0,1.0,89,0.00,,---,0.00,VWS V14.01,2013-01-25 21:07:00,
2013-01-25 16:12:00,24.1,21.3,30.18,SSE,156,0.0,1.0,89,0.00,,---,0.00,VWS V14.01,2013-01-25 21:12:00,
2013-01-25 16:17:00,24.2,21.7,30.18,SW,222,0.0,2.0,90,0.00,,---,0.00,VWS V14.01,2013-01-25 21:17:00,
2013-01-25 16:22:00,24.3,21.8,30.18,SW,223,0.0,2.0,90,0.00,,---,0.00,VWS V14.01,2013-01-25 21:22:00,
2013-01-25 16:27:00,24.4,22.2,30.18,SW,223,0.0,0.0,91,0.00,,---,0.00,VWS V14.01,2013-01-25 21:27:00,
2013-01-25 16:30:00,24.4,22.2,30.18,SW,223,0.0,2.0,91,0.00,,---,0.00,VWS V14.01,2013-01-25 21:30:00,
2013-01-25 16:32:00,24.7,22.5,30.17,SW,222,0.0,0.0,91,0.00,,---,0.00,VWS V14.01,2013-01-25 21:32:00,
2013-01-25 16:37:00,24.9,22.6,30.17,WSW,249,0.0,1.0,91,0.00,,---,0.00,VWS V14.01,2013-01-25 21:37:00,
2013-01-25 16:42:00,25.1,22.9,30.17,WSW,249,0.0,1.0,91,0.00,,---,0.00,VWS V14.01,2013-01-25 21:42:00,
2013-01-25 16:47:00,25.1,22.9,30.18,NW,312,0.0,1.0,91,0.00,,---,0.00,VWS V14.01,2013-01-25 21:47:00,
2013-01-25 16:52:00,25.3,23.0,30.18,ENE,71,0.0,1.0,91,0.00,,---,0.00,VWS V14.01,2013-01-25 21:52:00,
2013-01-25 16:57:00,25.4,23.1,30.17,ENE,71,0.0,0.0,91,0.00,,---,0.00,VWS V14.01,2013-01-25 21:57:00,
2013-01-25 17:00:00,25.3,23.0,30.17,ENE,71,0.0,1.0,91,0.00,,---,0.00,VWS V14.01,2013-01-25 22:00:00,
2013-01-25 17:02:00,25.4,23.1,30.17,ENE,71,0.0,0.0,91,0.00,,---,0.00,VWS V14.01,2013-01-25 22:02:00,
2013-01-25 17:08:00,25.5,23.2,30.16,South,176,1.0,1.0,91,0.00,,---,0.00,VWS V14.01,2013-01-25 22:08:00,
2013-01-25 17:13:00,25.4,23.1,30.15,SE,145,1.0,1.0,91,0.00,,---,0.00,VWS V14.01,2013-01-25 22:13:00,
2013-01-25 17:18:00,25.4,23.1,30.15,SSE,159,0.0,1.0,91,0.00,,---,0.00,VWS V14.01,2013-01-25 22:18:00,
2013-01-25 17:23:00,25.4,23.1,30.15,NW,324,0.0,1.0,91,0.00,,---,0.00,VWS V14.01,2013-01-25 22:23:00,
2013-01-25 17:28:00,25.3,23.0,30.15,WNW,286,0.0,1.0,91,0.00,,---,0.00,VWS V14.01,2013-01-25 22:28:00,
2013-01-25 17:30:00,25.4,23.1,30.15,NW,308,0.0,1.0,91,0.00,,---,0.00,VWS V14.01,2013-01-25 22:30:00,
2013-01-25 17:33:00,25.3,23.0,30.15,SW,236,0.0,1.0,91,0.00,,---,0.00,VWS V14.01,2013-01-25 22:33:00,
2013-01-25 17:38:00,25.3,23.3,30.15,SW,225,0.0,1.0,92,0.00,,---,0.00,VWS V14.01,2013-01-25 22:38:00,
2013-01-25 17:43:00,25.4,23.4,30.16,SW,227,0.0,1.0,92,0.00,,---,0.00,VWS V14.01,2013-01-25 22:43:00,
2013-01-25 17:48:00,25.4,23.4,30.16,SSW,198,1.0,1.0,92,0.00,,---,0.00,VWS V14.01,2013-01-25 22:48:00,
2013-01-25 17:53:00,25.4,23.4,30.16,SW,233,1.0,4.0,92,0.00,,---,0.00,VWS V14.01,2013-01-25 22:53:00,
2013-01-25 17:58:00,25.3,23.3,30.16,SW,229,1.0,2.0,92,0.00,,---,0.00,VWS V14.01,2013-01-25 22:58:00,
2013-01-25 18:00:00,25.3,23.3,30.16,SW,226,1.0,4.0,92,0.00,,---,0.00,VWS V14.01,2013-01-25 23:00:00,
2013-01-25 18:03:00,25.3,23.3,30.16,WNW,290,0.0,2.0,92,0.00,,---,0.00,VWS V14.01,2013-01-25 23:03:00,
2013-01-25 18:08:00,25.4,23.4,30.17,West,270,0.0,2.0,92,0.00,,---,0.00,VWS V14.01,2013-01-25 23:08:00,
2013-01-25 18:13:00,25.4,23.4,30.17,NW,307,0.0,2.0,92,0.00,,---,0.00,VWS V14.01,2013-01-25 23:13:00,
2013-01-25 18:18:00,25.4,23.4,30.17,West,267,0.0,2.0,92,0.00,,---,0.00,VWS V14.01,2013-01-25 23:18:00,
2013-01-25 18:23:00,25.5,23.5,30.16,South,178,0.0,2.0,92,0.00,,---,0.00,VWS V14.01,2013-01-25 23:23:00,
2013-01-25 18:28:00,25.6,23.6,30.16,SW,227,1.0,1.0,92,0.00,,---,0.00,VWS V14.01,2013-01-25 23:28:00,
2013-01-25 18:30:00,25.5,23.5,30.16,SSW,207,0.0,2.0,92,0.00,,---,0.00,VWS V14.01,2013-01-25 23:30:00,
2013-01-25 18:33:00,25.5,23.5,30.16,WSW,241,1.0,2.0,92,0.00,,---,0.00,VWS V14.01,2013-01-25 23:33:00,
2013-01-25 18:38:00,25.5,23.5,30.16,SW,227,0.0,2.0,92,0.00,,---,0.00,VWS V14.01,2013-01-25 23:38:00,
2013-01-25 18:43:00,25.5,23.5,30.16,SSE,165,0.0,2.0,92,0.00,,---,0.00,VWS V14.01,2013-01-25 23:43:00,
2013-01-25 18:48:00,25.5,23.5,30.15,West,279,0.0,2.0,92,0.00,,---,0.00,VWS V14.01,2013-01-25 23:48:00,
2013-01-25 18:53:00,25.5,23.5,30.15,WSW,240,1.0,2.0,92,0.00,,---,0.00,VWS V14.01,2013-01-25 23:53:00,
2013-01-25 18:58:00,25.6,23.9,30.15,SSW,195,0.0,1.0,93,0.00,,---,0.00,VWS V14.01,2013-01-25 23:58:00,
2013-01-25 19:00:00,25.5,23.5,30.15,WSW,252,0.0,2.0,92,0.00,,---,0.00,VWS V14.01,2013-01-26 00:00:00,
2013-01-25 19:03:00,25.5,23.5,30.15,WSW,256,1.0,2.0,92,0.00,,---,0.00,VWS V14.01,2013-01-26 00:03:00,
2013-01-25 19:08:00,25.5,23.5,30.15,WSW,258,1.0,2.0,92,0.00,,---,0.00,VWS V14.01,2013-01-26 00:08:00,
2013-01-25 19:13:00,25.5,23.8,30.14,WSW,241,2.0,2.0,93,0.00,,---,0.00,VWS V14.01,2013-01-26 00:13:00,
2013-01-25 19:18:00,25.5,23.8,30.15,SW,217,1.0,2.0,93,0.00,,---,0.00,VWS V14.01,2013-01-26 00:18:00,
2013-01-25 19:23:00,25.6,23.9,30.14,WNW,291,0.0,2.0,93,0.00,,---,0.00,VWS V14.01,2013-01-26 00:23:00,
2013-01-25 19:28:00,25.7,24.0,30.15,WNW,292,0.0,1.0,93,0.00,,---,0.00,VWS V14.01,2013-01-26 00:28:00,
2013-01-25 19:30:00,25.7,24.0,30.15,WNW,291,0.0,2.0,93,0.00,,---,0.00,VWS V14.01,2013-01-26 00:30:00,
2013-01-25 19:33:00,25.8,24.1,30.14,WNW,292,0.0,1.0,93,0.00,,---,0.00,VWS V14.01,2013-01-26 00:33:00,
2013-01-25 19:38:00,25.7,24.0,30.14,SW,232,1.0,2.0,93,0.00,,---,0.00,VWS V14.01,2013-01-26 00:38:00,
2013-01-25 19:43:00,25.7,24.0,30.14,ESE,104,0.0,2.0,93,0.00,,---,0.00,VWS V14.01,2013-01-26 00:43:00,
2013-01-25 19:48:00,25.8,24.1,30.14,WNW,295,0.0,2.0,93,0.00,,---,0.00,VWS V14.01,2013-01-26 00:48:00,
2013-01-25 19:53:00,25.8,24.1,30.13,ENE,78,1.0,2.0,93,0.00,,---,0.00,VWS V14.01,2013-01-26 00:53:00,
2013-01-25 19:58:00,25.9,24.2,30.13,SW,223,0.0,3.0,93,0.00,,---,0.00,VWS V14.01,2013-01-26 00:58:00,
2013-01-25 20:00:00,25.9,24.2,30.13,NNE,17,0.0,2.0,93,0.00,,---,0.00,VWS V14.01,2013-01-26 01:00:00,
2013-01-25 20:03:00,25.9,24.2,30.13,South,186,1.0,3.0,93,0.00,,---,0.00,VWS V14.01,2013-01-26 01:03:00,
2013-01-25 20:08:00,25.9,24.2,30.12,SW,229,0.0,3.0,93,0.00,,---,0.00,VWS V14.01,2013-01-26 01:08:00,
2013-01-25 20:13:00,25.9,24.2,30.13,SSE,158,0.0,3.0,93,0.00,,---,0.00,VWS V14.01,2013-01-26 01:13:00,
2013-01-25 20:18:00,25.9,24.2,30.11,SSE,159,1.0,3.0,93,0.00,,---,0.00,VWS V14.01,2013-01-26 01:18:00,
2013-01-25 20:23:00,25.9,24.2,30.12,WSW,242,0.0,5.0,93,0.00,,---,0.00,VWS V14.01,2013-01-26 01:23:00,
2013-01-25 20:28:00,25.9,24.2,30.11,WSW,244,1.0,2.0,93,0.00,,---,0.00,VWS V14.01,2013-01-26 01:28:00,
2013-01-25 20:30:00,25.9,24.2,30.12,WSW,242,0.0,5.0,93,0.00,,---,0.00,VWS V14.01,2013-01-26 01:30:00,
2013-01-25 20:33:00,26.0,24.3,30.11,NNW,336,0.0,2.0,93,0.00,,---,0.00,VWS V14.01,2013-01-26 01:33:00,
2013-01-25 20:38:00,26.0,24.3,30.11,NNE,14,1.0,2.0,93,0.00,,---,0.00,VWS V14.01,2013-01-26 01:38:00,
2013-01-25 20:43:00,26.0,24.3,30.11,SE,129,0.0,3.0,93,0.00,,---,0.00,VWS V14.01,2013-01-26 01:43:00,
2013-01-25 20:48:00,26.0,24.3,30.11,North,351,0.0,3.0,93,0.00,,---,0.00,VWS V14.01,2013-01-26 01:48:00,
2013-01-25 20:53:00,26.0,24.3,30.12,NE,38,0.0,3.0,93,0.00,,---,0.00,VWS V14.01,2013-01-26 01:53:00,
2013-01-25 20:58:00,26.0,24.3,30.12,NNW,331,1.0,2.0,93,0.00,,---,0.00,VWS V14.01,2013-01-26 01:58:00,
2013-01-25 21:00:00,26.0,24.3,30.12,NNW,341,0.0,3.0,93,0.00,,---,0.00,VWS V14.01,2013-01-26 02:00:00,
2013-01-25 21:03:00,25.9,24.2,30.12,NNW,332,0.0,2.0,93,0.00,,---,0.00,VWS V14.01,2013-01-26 02:03:00,
2013-01-25 21:08:00,26.0,24.3,30.12,WNW,299,0.0,4.0,93,0.00,,---,0.00,VWS V14.01,2013-01-26 02:08:00,
2013-01-25 21:13:00,26.0,24.3,30.13,WNW,301,0.0,4.0,93,0.00,,---,0.00,VWS V14.01,2013-01-26 02:13:00,
2013-01-25 21:18:00,26.1,24.4,30.13,WNW,286,0.0,4.0,93,0.00,,---,0.00,VWS V14.01,2013-01-26 02:18:00,
2013-01-25 21:23:00,26.1,24.4,30.12,West,281,1.0,4.0,93,0.00,,---,0.00,VWS V14.01,2013-01-26 02:23:00,
2013-01-25 21:28:00,26.2,24.5,30.12,South,186,0.0,4.0,93,0.00,,---,0.00,VWS V14.01,2013-01-26 02:28:00,
2013-01-25 21:30:00,26.1,24.4,30.12,NW,311,1.0,4.0,93,0.00,,---,0.00,VWS V14.01,2013-01-26 02:30:00,
2013-01-25 21:33:00,26.2,24.5,30.13,NE,35,2.0,4.0,93,0.00,,---,0.00,VWS V14.01,2013-01-26 02:33:00,
2013-01-25 21:38:00,26.2,24.5,30.13,West,267,1.0,4.0,93,0.00,,---,0.00,VWS V14.01,2013-01-26 02:38:00,
2013-01-25 21:43:00,26.2,24.5,30.13,WNW,296,4.0,4.0,93,0.00,,---,0.00,VWS V14.01,2013-01-26 02:43:00,
2013-01-25 21:48:00,26.2,24.5,30.13,West,272,0.0,4.0,93,0.00,,---,0.00,VWS V14.01,2013-01-26 02:48:00,
2013-01-25 21:54:00,26.2,24.5,30.13,West,275,0.0,4.0,93,0.00,,---,0.00,VWS V14.01,2013-01-26 02:54:00,
2013-01-25 21:58:00,26.2,24.2,30.13,NW,305,0.0,2.0,92,0.00,,---,0.00,VWS V14.01,2013-01-26 02:58:00,
2013-01-25 22:00:00,26.2,24.2,30.13,WSW,241,1.0,4.0,92,0.00,,---,0.00,VWS V14.01,2013-01-26 03:00:00,
2013-01-25 22:04:00,26.2,24.2,30.13,WNW,292,1.0,4.0,92,0.00,,---,0.00,VWS V14.01,2013-01-26 03:04:00,
2013-01-25 22:09:00,26.2,24.2,30.13,NW,310,1.0,4.0,92,0.00,,---,0.00,VWS V14.01,2013-01-26 03:09:00,
2013-01-25 22:14:00,26.2,24.5,30.13,North,351,2.0,4.0,93,0.00,,---,0.00,VWS V14.01,2013-01-26 03:14:00,
2013-01-25 22:19:00,26.2,24.2,30.13,WNW,289,0.0,5.0,92,0.00,,---,0.00,VWS V14.01,2013-01-26 03:19:00,
2013-01-25 22:24:00,26.2,24.2,30.12,WNW,291,2.0,5.0,92,0.00,,---,0.00,VWS V14.01,2013-01-26 03:24:00,
2013-01-25 22:29:00,26.1,24.1,30.12,NNW,327,1.0,6.0,92,0.00,,---,0.00,VWS V14.01,2013-01-26 03:29:00,
2013-01-25 22:30:00,26.2,24.5,30.12,SSE,152,1.0,5.0,93,0.00,,---,0.00,VWS V14.01,2013-01-26 03:30:00,
2013-01-25 22:34:00,26.1,24.1,30.12,SSE,168,0.0,6.0,92,0.00,,---,0.00,VWS V14.01,2013-01-26 03:34:00,
2013-01-25 22:39:00,26.0,24.0,30.12,WSW,250,1.0,6.0,92,0.00,,---,0.00,VWS V14.01,2013-01-26 03:39:00,
2013-01-25 22:44:00,25.9,23.9,30.12,WSW,241,1.0,6.0,92,0.00,,---,0.00,VWS V14.01,2013-01-26 03:44:00,
2013-01-25 22:49:00,25.9,23.9,30.12,NW,304,4.0,6.0,92,0.00,,---,0.00,VWS V14.01,2013-01-26 03:49:00,
2013-01-25 22:54:00,25.9,23.9,30.12,SSE,149,0.0,6.0,92,0.00,,---,0.00,VWS V14.01,2013-01-26 03:54:00,
2013-01-25 22:59:00,25.9,23.9,30.12,WSW,249,1.0,5.0,92,0.00,,---,0.00,VWS V14.01,2013-01-26 03:59:00,
2013-01-25 23:00:00,25.9,23.9,30.12,NW,318,1.0,6.0,92,0.00,,---,0.00,VWS V14.01,2013-01-26 04:00:00,
2013-01-25 23:04:00,25.9,23.9,30.12,West,267,1.0,5.0,92,0.00,,---,0.00,VWS V14.01,2013-01-26 04:04:00,
2013-01-25 23:09:00,25.8,24.1,30.12,SSW,192,0.0,5.0,93,0.00,,---,0.00,VWS V14.01,2013-01-26 04:09:00,
2013-01-25 23:14:00,25.9,24.2,30.12,NNE,30,4.0,5.0,93,0.00,,---,0.00,VWS V14.01,2013-01-26 04:14:00,
2013-01-25 23:19:00,25.9,24.2,30.12,WNW,295,1.0,5.0,93,0.00,,---,0.00,VWS V14.01,2013-01-26 04:19:00,
2013-01-25 23:24:00,25.8,24.1,30.12,NW,314,0.0,5.0,93,0.00,,---,0.00,VWS V14.01,2013-01-26 04:24:00,
2013-01-25 23:29:00,25.8,24.1,30.12,NW,313,1.0,4.0,93,0.00,,---,0.00,VWS V14.01,2013-01-26 04:29:00,
2013-01-25 23:30:00,25.8,24.1,30.12,WNW,302,3.0,5.0,93,0.00,,---,0.00,VWS V14.01,2013-01-26 04:30:00,
2013-01-25 23:34:00,25.8,24.1,30.12,West,279,2.0,5.0,93,0.00,,---,0.00,VWS V14.01,2013-01-26 04:34:00,
2013-01-25 23:39:00,25.8,24.1,30.11,NW,315,0.0,5.0,93,0.00,,---,0.00,VWS V14.01,2013-01-26 04:39:00,
2013-01-25 23:44:00,25.8,24.1,30.11,SE,141,0.0,5.0,93,0.00,,---,0.00,VWS V14.01,2013-01-26 04:44:00,
2013-01-25 23:49:00,25.8,24.1,30.11,WNW,287,1.0,6.0,93,0.00,,---,0.00,VWS V14.01,2013-01-26 04:49:00,
2013-01-25 23:54:00,25.8,24.1,30.11,NNE,12,0.0,6.0,93,0.00,,---,0.00,VWS V14.01,2013-01-26 04:54:00,
2013-01-25 23:59:00,25.8,24.1,30.11,West,275,1.0,7.0,93,0.00,,---,0.00,VWS V14.01,2013-01-26 04:59:00,